Newport, NY

7:16 AM EST on November 17, 2019 (GMT -0500)
Farrington Rd | | Change Station
Active Advisory: Winter Weather Advisory

Elev 960 ft 43.17 °N, 74.98 °W | Updated 15 minutes ago

Clear
Clear
15.4 °F
Feels Like 15 °F
N
0
Wind Variable Wind from SSE
Gusts 0.0 mph

Today
High -- | Low -- °F
--% Chance of Precip.
Yesterday
High -- | Low -- °F
Precip. -- in
Pressure 30.46 in
Visibility 10.0 miles
Clouds Clear
Windchill 15 °F
Dew Point 9 °F
Humidity 74%
Rainfall 0.00 in
Snow Depth Not available.
6:55 AM 4:34 PM
Waning Gibbous, 75% visible
METAR KRME 171153Z 11005KT 10SM CLR M08/M12 A3044 RMK AO2 SLP315 T10831122 11067 21083 58004
Pressure 30.46 in
Visibility 10.0 miles
Clouds Clear
Windchill 15 °F
Dew Point 9 °F
Humidity 74%
Rainfall 0.00 in
Snow Depth Not available.
6:55 AM 4:34 PM
Waning Gibbous, 75% visible
METAR KRME 171153Z 11005KT 10SM CLR M08/M12 A3044 RMK AO2 SLP315 T10831122 11067 21083 58004

Get Your Daily Forecast Email!

Thanks for signing up!

Be on the lookout for a verification email in your inbox.

You'll start receiving severe weather alerts in your inbox..

×

10-Day Weather Forecast

Almanac

Astronomy

Nov. 17, 2019 Rise Set
Actual Time
Civil Twilight
Nautical Twilight
Astronomical Twilight
Moon
Length of Visible Light
Length of Day
Tomorrow will be .
, % of the Moon is Illuminated

Today's Extremes

State Highs State Lows

Community

WunderPhotos

Category 6

Welcome to Category 6. This is the collective home for Weather Underground's featured writeups by Dr. Jeff Masters (right), Bob Henson (left), Chris Burt, and other regular contributors.

Nearby

Air Quality

  Air Quality AQ Index Pollutant
Not available.

Snow Depth

Station Depth Elevation

Earthquake Activity

City Distance Mag. Time & Date
Minimum magnitude displayed is 2.5.

Coastal Water Temperatures

Place Temperature

Stations

Nearby Weather Stations

Station Location Temp. Windchill Dew Point Humidity Wind Precip. Elev Updated Type
                   

Watches & Warnings

Winter Weather Advisory
Issued: 3:16 AM EST Nov. 17, 2019 – National Weather Service

... Winter Weather Advisory in effect from 1 am to noon EST
Monday...

* what... freezing rain, possibly mixed with sleet at times. A
light glaze of ice, with ice accumulations of less than one
tenth of an inch.

* Where... the Mohawk and Schoharie valleys, eastern Catskills,
Glens Falls and Saratoga region, greater capital district, Mid
Hudson valley, and Taconics of eastern New York, southern
Vermont, northwestern Connecticut, and western Massachusetts.

* When... from 1 am to noon EST Monday.

* Impacts... plan on slippery Road conditions. The hazardous
conditions could impact the morning commute.

Precautionary/preparedness actions...

Slow down and use caution while traveling.